Time;durP1;ratioP1;P1;durP2;ratioP2;P2;SDS_P1;SDS_P2;PMS_P1;PMS_P2;Temp;Humidity;BMP_temperature;BMP_pressure;BME280_temperature;BME280_humidity;BME280_pressure;Samples;Min_cycle;Max_cycle;Signal;HPM_P1;HPM_P2
2023/05/20 00:00:09;;;;;;;5.93;3.92;;;9.40;1.00;10.30;94200.00;;;;7403843;19;20165;-80
2023/05/20 00:02:44;;;;;;;7.00;3.45;;;9.40;1.00;10.20;94216.00;;;;7404390;19;20200;-79
2023/05/20 00:05:18;;;;;;;4.82;3.15;;;9.30;1.00;10.30;94226.00;;;;7402535;19;20160;-77
2023/05/20 00:07:52;;;;;;;4.75;3.30;;;9.30;1.00;10.50;94224.00;;;;7404417;19;20144;-77
2023/05/20 00:10:19;;;;;;;5.15;2.92;;;9.40;1.00;10.30;94225.00;;;;7403911;19;20148;-77
2023/05/20 00:12:54;;;;;;;3.83;3.15;;;9.40;1.00;10.30;94223.00;;;;7403758;19;20619;-78
2023/05/20 00:15:21;;;;;;;4.22;3.17;;;9.40;1.00;10.20;94214.00;;;;7404370;19;20592;-80
2023/05/20 00:17:57;;;;;;;7.65;3.58;;;9.40;1.00;10.20;94216.00;;;;7403834;19;20124;-77
2023/05/20 00:20:24;;;;;;;6.45;3.58;;;9.30;1.00;9.90;94226.00;;;;7404448;19;20132;-79
2023/05/20 00:22:59;;;;;;;4.95;3.70;;;9.20;1.00;9.80;94226.00;;;;7404303;19;20121;-78
2023/05/20 00:25:26;;;;;;;7.03;3.47;;;9.10;1.00;9.60;94195.00;;;;7403804;19;20133;-76
2023/05/20 00:28:00;;;;;;;5.85;4.07;;;9.00;1.00;9.70;94214.00;;;;7402876;19;20615;-76
2023/05/20 00:30:34;;;;;;;11.20;3.40;;;8.90;18.50;9.60;94198.00;;;;7403035;19;20136;-78
2023/05/20 00:33:10;;;;;;;5.63;3.92;;;8.80;99.90;9.60;94203.00;;;;7402482;19;20136;-79
2023/05/20 00:35:44;;;;;;;10.95;4.20;;;8.70;99.90;9.50;94180.00;;;;7403377;19;20142;-77
2023/05/20 00:38:18;;;;;;;7.18;3.85;;;8.60;99.90;9.30;94224.00;;;;7402806;19;20140;-76
2023/05/20 00:40:45;;;;;;;5.93;4.07;;;8.50;99.90;9.40;94194.00;;;;7402049;19;20141;-78
2023/05/20 00:43:19;;;;;;;4.23;3.83;;;8.50;99.90;9.30;94226.00;;;;7402402;19;20140;-79
2023/05/20 00:45:48;;;;;;;7.05;4.15;;;8.50;99.90;9.30;94220.00;;;;7399477;19;20133;-79
2023/05/20 00:48:22;;;;;;;6.03;4.40;;;8.40;1.00;9.30;94217.00;;;;7402769;19;20125;-79
2023/05/20 00:50:50;;;;;;;6.47;4.63;;;8.40;1.00;9.30;94171.00;;;;7402638;19;20200;-79
2023/05/20 00:53:24;;;;;;;7.57;4.30;;;8.40;1.00;9.30;94222.00;;;;7403425;19;20571;-77
2023/05/20 00:56:01;;;;;;;9.87;4.27;;;8.40;1.00;9.30;94194.00;;;;7401814;19;20485;-77
2023/05/20 00:58:31;;;;;;;9.37;4.53;;;8.40;1.00;9.40;94212.00;;;;7400987;19;20148;-79
2023/05/20 01:01:06;;;;;;;5.70;4.27;;;8.50;1.00;9.40;94209.00;;;;7400297;19;20596;-76
2023/05/20 01:03:41;;;;;;;4.80;4.27;;;8.50;1.00;9.40;94190.00;;;;7401143;19;20137;-74
2023/05/20 01:06:21;;;;;;;7.13;4.30;;;8.50;1.00;9.40;94179.00;;;;7400192;19;20133;-75
2023/05/20 01:08:56;;;;;;;6.63;4.53;;;8.60;1.00;9.30;94214.00;;;;7400199;19;20121;-74
2023/05/20 01:11:49;;;;;;;5.32;4.10;;;8.50;1.00;9.50;94205.00;;;;7400586;19;20595;-74
2023/05/20 01:14:31;;;;;;;6.18;4.15;;;8.60;1.00;9.40;94144.00;;;;7401133;19;20465;-74
2023/05/20 01:17:08;;;;;;;5.65;4.25;;;8.60;1.00;9.30;94155.00;;;;7401606;19;20604;-73
2023/05/20 01:19:44;;;;;;;7.53;4.57;;;8.60;1.00;9.40;94212.00;;;;7400450;19;20614;-76
2023/05/20 01:22:17;;;;;;;6.47;4.00;;;8.60;1.00;9.50;94182.00;;;;7399977;19;20132;-76
2023/05/20 01:24:52;;;;;;;5.75;4.25;;;8.60;1.00;9.40;94213.00;;;;7401615;19;20140;-74
2023/05/20 01:27:29;;;;;;;7.82;4.35;;;8.60;1.00;9.50;94204.00;;;;7400122;19;20245;-75
2023/05/20 01:30:04;;;;;;;5.40;4.68;;;8.60;1.00;9.60;94207.00;;;;7399935;19;20148;-74
2023/05/20 01:32:37;;;;;;;7.78;4.70;;;8.60;1.00;9.80;94148.00;;;;7397457;19;20136;-75
2023/05/20 01:35:11;;;;;;;5.15;4.18;;;8.70;1.00;9.80;94201.00;;;;7400938;19;20133;-75
2023/05/20 01:37:47;;;;;;;5.40;4.38;;;8.80;1.00;9.70;94207.00;;;;7400877;19;20141;-76
2023/05/20 01:40:26;;;;;;;6.07;4.78;;;8.90;1.00;9.70;94204.00;;;;7400238;19;20463;-74
2023/05/20 01:43:01;;;;;;;5.60;3.90;;;8.90;1.00;9.80;94164.00;;;;7399599;19;20212;-74
2023/05/20 01:45:37;;;;;;;5.35;4.50;;;9.00;1.00;9.60;94200.00;;;;7400073;19;20132;-75
2023/05/20 01:48:04;;;;;;;7.00;4.63;;;9.00;1.00;9.90;94185.00;;;;7395704;19;20216;-73
2023/05/20 01:50:39;;;;;;;4.70;3.95;;;9.00;1.00;9.90;94189.00;;;;7400199;19;20140;-82
2023/05/20 01:53:13;;;;;;;6.00;4.57;;;9.00;1.00;10.00;94154.00;;;;7396555;19;20158;-74
2023/05/20 01:55:47;;;;;;;7.03;4.38;;;9.10;1.00;10.00;94194.00;;;;7397516;19;20615;-75
2023/05/20 01:58:22;;;;;;;7.05;4.60;;;9.10;1.00;10.10;94185.00;;;;7399449;19;20147;-74
2023/05/20 02:00:56;;;;;;;4.70;4.20;;;9.10;1.00;10.10;94157.00;;;;7399939;19;20177;-74
2023/05/20 02:03:38;;;;;;;5.68;4.07;;;9.10;1.00;10.10;94165.00;;;;7400180;19;20152;-74
2023/05/20 02:06:12;;;;;;;6.95;4.70;;;9.10;1.00;10.00;94177.00;;;;7398259;19;20152;-77
2023/05/20 02:08:39;;;;;;;5.70;4.30;;;9.10;1.00;9.90;94146.00;;;;7399667;19;20504;-76
2023/05/20 02:11:15;;;;;;;5.80;4.38;;;9.10;1.00;10.10;94179.00;;;;7399711;19;20591;-74
2023/05/20 02:13:43;;;;;;;4.15;3.75;;;9.20;1.00;9.80;94189.00;;;;7398233;19;20224;-76
2023/05/20 02:16:17;;;;;;;5.40;4.40;;;9.20;1.00;9.90;94191.00;;;;7398431;19;20475;-74
2023/05/20 02:18:51;;;;;;;6.25;4.95;;;9.20;1.00;9.90;94156.00;;;;7399404;19;20161;-74
2023/05/20 02:21:25;;;;;;;5.00;4.45;;;9.10;1.00;9.90;94146.00;;;;7398685;19;20453;-76
2023/05/20 02:23:59;;;;;;;5.73;4.43;;;9.10;1.00;9.80;94144.00;;;;7397263;19;20162;-76
2023/05/20 02:26:33;;;;;;;6.68;4.70;;;9.10;1.00;9.90;94145.00;;;;7399046;19;20137;-75
2023/05/20 02:29:01;;;;;;;5.63;4.40;;;9.00;1.00;9.70;94124.00;;;;7396652;19;20145;-75
2023/05/20 02:31:34;;;;;;;5.00;4.50;;;9.00;1.00;9.60;94173.00;;;;7398476;19;20157;-76
2023/05/20 02:34:08;;;;;;;6.87;4.70;;;8.90;1.00;9.50;94127.00;;;;7398770;19;20132;-74
2023/05/20 02:36:36;;;;;;;5.77;4.43;;;8.80;1.00;9.50;94121.00;;;;7398859;19;20592;-74
2023/05/20 02:39:10;;;;;;;6.97;5.03;;;8.70;1.00;9.50;94167.00;;;;7396678;19;20136;-77
2023/05/20 02:41:38;;;;;;;6.07;5.00;;;8.70;7.70;9.50;94170.00;;;;7397247;19;20531;-74
2023/05/20 02:44:12;;;;;;;5.00;4.50;;;8.70;27.30;9.50;94137.00;;;;7398768;19;20469;-78
2023/05/20 02:46:42;;;;;;;7.23;4.83;;;8.70;48.80;9.60;94162.00;;;;7398422;19;20771;-74
2023/05/20 02:49:16;;;;;;;4.97;4.47;;;8.70;48.70;9.50;94161.00;;;;7396785;19;20484;-75
2023/05/20 02:51:43;;;;;;;5.70;5.07;;;8.60;99.90;9.40;94147.00;;;;7398406;19;20145;-74
2023/05/20 02:54:17;;;;;;;5.63;5.00;;;8.60;99.90;9.60;94163.00;;;;7396753;19;20148;-75
2023/05/20 02:56:44;;;;;;;5.80;4.83;;;8.60;99.90;9.50;94161.00;;;;7397932;19;20607;-75
2023/05/20 02:59:25;;;;;;;6.70;5.13;;;8.60;99.90;9.40;94129.00;;;;7397070;19;20145;-73
2023/05/20 03:01:52;;;;;;;5.60;4.87;;;8.50;99.90;9.30;94149.00;;;;7395120;19;20175;-75
2023/05/20 03:04:32;;;;;;;6.27;5.43;;;8.50;99.90;9.30;94168.00;;;;7397472;19;20144;-76
2023/05/20 03:07:13;;;;;;;10.70;5.57;;;8.60;1.00;9.40;94166.00;;;;7397664;19;20145;-76
2023/05/20 03:09:49;;;;;;;7.60;5.67;;;8.60;1.00;9.30;94134.00;;;;7403385;19;20137;-76
2023/05/20 03:12:16;;;;;;;7.65;5.38;;;8.60;1.00;9.30;94171.00;;;;7404259;19;20129;-74
2023/05/20 03:14:54;;;;;;;5.78;5.15;;;8.60;1.00;9.40;94177.00;;;;7403862;19;20132;-76
2023/05/20 03:17:27;;;;;;;11.93;5.83;;;8.60;1.00;9.40;94158.00;;;;7403386;19;20143;-74
2023/05/20 03:20:02;;;;;;;8.87;5.97;;;8.60;1.00;9.50;94134.00;;;;7403975;19;20149;-75
2023/05/20 03:22:36;;;;;;;6.97;5.40;;;8.70;1.00;9.40;94159.00;;;;7404027;19;20140;-76
2023/05/20 03:25:04;;;;;;;6.85;5.93;;;8.70;1.00;9.50;94167.00;;;;7403282;19;20476;-76
2023/05/20 03:27:38;;;;;;;6.22;5.15;;;8.70;1.00;9.60;94165.00;;;;7405241;19;20132;-75
2023/05/20 03:30:12;;;;;;;6.87;5.70;;;8.70;1.00;9.40;94153.00;;;;7403542;19;20209;-76
2023/05/20 03:32:48;;;;;;;8.48;5.78;;;8.70;1.00;9.50;94155.00;;;;7402552;19;20140;-75
2023/05/20 03:35:22;;;;;;;9.05;5.88;;;8.80;1.00;9.60;94176.00;;;;7405312;19;20136;-76
2023/05/20 03:37:52;;;;;;;6.88;6.10;;;8.80;1.00;9.60;94132.00;;;;7405038;19;20133;-75
2023/05/20 03:40:26;;;;;;;7.18;6.07;;;8.80;1.00;9.60;94166.00;;;;7403270;19;20169;-75
2023/05/20 03:42:55;;;;;;;9.27;5.95;;;8.80;1.00;9.60;94121.00;;;;7404529;19;20587;-75
2023/05/20 03:45:29;;;;;;;7.83;5.90;;;8.80;1.00;9.60;94132.00;;;;7404201;19;20129;-76
2023/05/20 03:47:56;;;;;;;6.63;5.73;;;8.80;1.00;9.50;94147.00;;;;7402954;19;20152;-73
2023/05/20 03:50:23;;;;;;;8.05;5.95;;;8.80;1.00;9.50;94149.00;;;;7404184;19;20137;-76
2023/05/20 03:52:57;;;;;;;17.67;6.53;;;8.70;1.00;9.50;94141.00;;;;7400522;19;20604;-75
2023/05/20 03:55:24;;;;;;;6.50;5.80;;;8.70;1.00;9.50;94166.00;;;;7402376;19;20144;-76
2023/05/20 03:58:00;;;;;;;6.20;5.60;;;8.70;1.00;9.50;94112.00;;;;7404590;19;20579;-76
2023/05/20 04:00:30;;;;;;;7.93;5.95;;;8.70;1.00;9.60;94164.00;;;;7402324;19;20152;-75
2023/05/20 04:03:04;;;;;;;6.25;5.65;;;8.70;1.00;9.60;94134.00;;;;7403314;19;20153;-75
2023/05/20 04:05:44;;;;;;;8.88;5.90;;;8.70;1.00;9.60;94163.00;;;;7401772;19;20257;-76
2023/05/20 04:08:18;;;;;;;7.47;5.95;;;8.70;1.00;9.50;94145.00;;;;7402465;19;20166;-77
2023/05/20 04:10:45;;;;;;;6.82;6.13;;;8.80;1.00;9.60;94165.00;;;;7403894;19;20169;-76
2023/05/20 04:13:19;;;;;;;9.98;6.03;;;8.80;1.00;9.70;94159.00;;;;7400086;19;20541;-75
2023/05/20 04:15:46;;;;;;;8.47;5.70;;;8.80;1.00;9.70;94119.00;;;;7403204;19;20459;-76
2023/05/20 04:18:21;;;;;;;7.63;6.13;;;8.80;1.00;9.70;94155.00;;;;7402823;19;20616;-76
2023/05/20 04:20:48;;;;;;;7.55;5.80;;;8.90;1.00;9.70;94154.00;;;;7403025;19;20600;-75
2023/05/20 04:23:22;;;;;;;9.35;5.57;;;8.90;1.00;9.70;94159.00;;;;7403331;19;20137;-76
2023/05/20 04:25:49;;;;;;;9.27;5.97;;;8.90;1.00;9.70;94107.00;;;;7402481;19;20493;-75
2023/05/20 04:28:26;;;;;;;9.23;6.35;;;8.90;1.00;9.70;94131.00;;;;7401518;19;20140;-76
2023/05/20 04:31:05;;;;;;;11.65;6.15;;;8.80;1.00;9.70;94159.00;;;;7403167;19;20207;-74
2023/05/20 04:33:39;;;;;;;6.97;6.27;;;8.80;1.00;9.70;94145.00;;;;7399711;19;20602;-75
2023/05/20 04:36:14;;;;;;;9.77;6.32;;;8.80;1.00;9.70;94156.00;;;;7401045;19;20156;-77
2023/05/20 04:38:49;;;;;;;9.88;5.82;;;8.80;23.70;10.00;94121.00;;;;7403714;19;20588;-77
2023/05/20 04:41:23;;;;;;;8.55;6.38;;;9.00;4.30;10.10;94145.00;;;;7401041;19;20635;-76
2023/05/20 04:44:00;;;;;;;7.70;6.20;;;9.00;1.00;10.30;94132.00;;;;7401902;19;20141;-74
2023/05/20 04:46:27;;;;;;;8.98;5.57;;;9.10;1.00;10.20;94088.00;;;;7400360;19;20151;-75
2023/05/20 04:49:03;;;;;;;7.38;5.90;;;9.20;1.00;10.20;94137.00;;;;7401769;19;20141;-74
2023/05/20 04:51:37;;;;;;;8.20;5.30;;;9.20;1.00;10.20;94126.00;;;;7401253;19;20141;-75
2023/05/20 04:54:05;;;;;;;14.40;5.90;;;9.10;1.00;10.20;94103.00;;;;7401550;19;20148;-75
2023/05/20 04:56:39;;;;;;;6.68;5.57;;;9.20;1.00;10.30;94119.00;;;;7401360;19;20137;-75
2023/05/20 04:59:06;;;;;;;6.80;5.95;;;9.30;1.00;10.50;94134.00;;;;7400374;19;20165;-75
2023/05/20 05:01:40;;;;;;;8.43;5.97;;;9.40;1.00;10.50;94138.00;;;;7399937;19;20196;-74
2023/05/20 05:04:21;;;;;;;8.18;6.00;;;9.50;1.00;10.70;94114.00;;;;7400924;19;20175;-74
2023/05/20 05:06:55;;;;;;;8.27;5.82;;;9.60;99.90;10.80;94125.00;;;;7401394;19;20168;-76
2023/05/20 05:09:29;;;;;;;9.60;5.90;;;9.60;99.90;10.90;94102.00;;;;7402562;19;20136;-74
2023/05/20 05:12:03;;;;;;;8.87;6.27;;;9.70;99.90;10.80;94088.00;;;;7401217;19;20157;-76
2023/05/20 05:14:30;;;;;;;6.65;5.43;;;9.70;99.90;10.80;94109.00;;;;7400156;19;20650;-74
2023/05/20 05:17:04;;;;;;;7.97;6.05;;;9.80;99.90;10.90;94093.00;;;;7400662;19;20600;-74
2023/05/20 05:19:31;;;;;;;10.57;5.88;;;9.90;99.90;11.00;94130.00;;;;7400791;19;20145;-74
2023/05/20 05:22:05;;;;;;;7.65;5.05;;;9.90;99.90;10.90;94117.00;;;;7402382;19;20624;-76
2023/05/20 05:24:32;;;;;;;7.28;5.28;;;10.00;74.20;11.00;94089.00;;;;7400742;19;20623;-73
2023/05/20 05:27:06;;;;;;;6.05;4.97;;;10.00;49.40;11.10;94086.00;;;;7399605;19;20214;-77
2023/05/20 05:29:33;;;;;;;9.13;5.90;;;10.10;49.40;11.00;94079.00;;;;7400415;19;20141;-76
2023/05/20 05:32:07;;;;;;;7.15;5.85;;;10.10;48.80;11.20;94114.00;;;;7398664;19;20212;-75
2023/05/20 05:34:41;;;;;;;8.68;5.53;;;10.10;49.40;11.10;94113.00;;;;7402250;19;20124;-76
2023/05/20 05:37:08;;;;;;;6.47;5.50;;;10.10;1.00;11.10;94067.00;;;;7399336;19;20141;-75
2023/05/20 05:39:42;;;;;;;5.53;4.72;;;10.20;1.00;11.20;94115.00;;;;7399371;19;20133;-75
2023/05/20 05:42:16;;;;;;;7.32;5.53;;;10.20;1.00;11.20;94082.00;;;;7400455;19;20600;-76
2023/05/20 05:44:43;;;;;;;7.25;5.30;;;10.20;1.00;11.10;94115.00;;;;7401483;19;20121;-76
2023/05/20 05:47:17;;;;;;;7.18;5.70;;;10.30;1.00;11.40;94082.00;;;;7400929;19;20129;-75
2023/05/20 05:49:44;;;;;;;5.53;5.03;;;10.40;1.00;11.50;94124.00;;;;7401719;19;20592;-74
2023/05/20 05:52:18;;;;;;;6.47;5.32;;;10.50;1.00;11.60;94106.00;;;;7398923;19;20153;-76
2023/05/20 05:54:45;;;;;;;6.18;5.30;;;10.50;1.00;11.40;94111.00;;;;7401156;19;20145;-76
2023/05/20 05:57:19;;;;;;;6.18;5.18;;;10.50;1.00;11.30;94098.00;;;;7399648;19;20488;-74
2023/05/20 05:59:46;;;;;;;6.57;5.07;;;10.50;1.00;11.30;94080.00;;;;7400892;19;20595;-77
2023/05/20 06:02:21;;;;;;;5.85;4.90;;;10.60;1.00;11.60;94113.00;;;;7396866;19;20141;-74
2023/05/20 06:04:55;;;;;;;9.27;6.00;;;10.70;1.00;11.70;94091.00;;;;7399008;19;20145;-75
2023/05/20 06:07:35;;;;;;;6.25;5.32;;;10.80;1.00;11.80;94097.00;;;;7400271;19;20139;-75
2023/05/20 06:10:03;;;;;;;7.82;5.15;;;10.90;1.00;12.10;94118.00;;;;7399521;19;20136;-75
2023/05/20 06:12:37;;;;;;;8.27;6.07;;;11.00;99.90;12.10;94084.00;;;;7398952;19;20212;-75
2023/05/20 06:15:06;;;;;;;8.77;5.15;;;11.10;99.90;12.20;94115.00;;;;7398885;19;20145;-74
2023/05/20 06:17:33;;;;;;;8.57;5.05;;;11.20;99.90;12.30;94071.00;;;;7400803;19;20133;-73
2023/05/20 06:20:07;;;;;;;7.97;4.85;;;11.40;99.90;12.50;94070.00;;;;7400938;19;20137;-75
2023/05/20 06:22:34;;;;;;;7.40;5.20;;;11.40;99.90;12.40;94097.00;;;;7401141;19;20508;-78
2023/05/20 06:25:09;;;;;;;7.55;5.57;;;11.50;99.90;12.70;94111.00;;;;7398782;19;20527;-76
2023/05/20 06:27:43;;;;;;;5.55;5.05;;;11.60;99.90;12.80;94089.00;;;;7398684;19;20152;-76
2023/05/20 06:30:17;;;;;;;6.15;5.20;;;11.70;59.90;12.90;94104.00;;;;7399332;19;20169;-80
2023/05/20 06:32:51;;;;;;;7.22;5.10;;;12.00;1.00;13.10;94107.00;;;;7398252;19;20141;-76
2023/05/20 06:35:26;;;;;;;7.65;5.28;;;12.00;1.00;13.20;94094.00;;;;7400439;19;20144;-80
2023/05/20 06:38:00;;;;;;;6.75;5.05;;;12.00;1.00;13.00;94103.00;;;;7398874;19;20144;-74
2023/05/20 06:40:35;;;;;;;7.70;5.43;;;11.90;1.00;12.80;94097.00;;;;7397974;19;20160;-78
2023/05/20 06:43:02;;;;;;;8.60;5.80;;;11.80;1.00;12.70;94094.00;;;;7396329;19;20588;-75
2023/05/20 06:45:29;;;;;;;6.35;5.20;;;11.70;1.00;12.70;94099.00;;;;7396504;19;20622;-74
2023/05/20 06:48:03;;;;;;;7.43;5.78;;;11.70;1.00;12.90;94069.00;;;;7397529;19;20604;-74
2023/05/20 06:50:30;;;;;;;9.15;5.25;;;11.80;12.20;13.00;94095.00;;;;7398612;19;20160;-75
2023/05/20 06:53:04;;;;;;;7.03;5.53;;;12.00;1.00;13.20;94092.00;;;;7397912;19;20157;-74
2023/05/20 06:55:31;;;;;;;6.82;5.53;;;12.00;1.00;13.10;94081.00;;;;7398065;19;20208;-73
2023/05/20 06:58:05;;;;;;;6.03;5.40;;;12.00;1.00;13.40;94093.00;;;;7397840;19;20160;-74
2023/05/20 07:00:32;;;;;;;8.27;5.47;;;12.20;1.00;13.80;94082.00;;;;7397157;19;20132;-73
2023/05/20 07:03:06;;;;;;;8.30;5.70;;;12.40;1.00;13.80;94086.00;;;;7397772;19;20137;-74
2023/05/20 07:05:40;;;;;;;6.60;5.65;;;12.50;1.00;13.50;94094.00;;;;7397229;19;20148;-74
2023/05/20 07:08:14;;;;;;;10.25;6.07;;;12.50;1.00;13.80;94059.00;;;;7397956;19;20497;-73
2023/05/20 07:10:48;;;;;;;7.15;6.03;;;12.60;1.00;14.00;94082.00;;;;7397875;19;20137;-75
2023/05/20 07:13:22;;;;;;;7.50;5.78;;;12.70;1.00;14.10;94061.00;;;;7396691;19;20632;-75
2023/05/20 07:15:50;;;;;;;6.57;5.70;;;12.80;1.00;14.40;94039.00;;;;7398241;19;20133;-73
2023/05/20 07:18:23;;;;;;;6.03;5.22;;;13.00;99.90;14.10;94033.00;;;;7399094;19;20620;-75
2023/05/20 07:20:51;;;;;;;6.75;5.28;;;13.10;1.00;14.70;94032.00;;;;7397414;19;20473;-74
2023/05/20 07:23:25;;;;;;;7.28;5.70;;;13.40;1.40;15.40;94022.00;;;;7397312;19;20124;-75
2023/05/20 07:25:53;;;;;;;6.07;5.47;;;13.80;99.90;15.80;94062.00;;;;7398461;19;20122;-75
2023/05/20 07:28:27;;;;;;;5.97;5.38;;;14.10;99.90;15.90;94062.00;;;;7397157;19;20149;-74
2023/05/20 07:30:55;;;;;;;9.02;5.38;;;14.30;99.90;15.80;94045.00;;;;7395976;19;20592;-75
2023/05/20 07:33:29;;;;;;;8.15;5.72;;;14.50;99.90;15.50;94071.00;;;;7396404;19;20137;-74
2023/05/20 07:36:03;;;;;;;6.78;5.20;;;14.30;99.90;15.20;94068.00;;;;7398824;19;20528;-76
2023/05/20 07:38:37;;;;;;;7.00;5.40;;;14.40;99.90;15.40;94060.00;;;;7397567;19;20528;-74
2023/05/20 07:41:07;;;;;;;8.32;5.70;;;14.40;99.90;15.00;94053.00;;;;7397344;19;20136;-74
2023/05/20 07:43:41;;;;;;;6.05;5.28;;;14.40;99.90;15.60;94042.00;;;;7397099;19;20523;-75
2023/05/20 07:46:15;;;;;;;7.60;6.57;;;14.60;99.90;15.90;94023.00;;;;7398287;19;20152;-75
2023/05/20 07:48:45;;;;;;;6.78;6.03;;;14.70;99.90;16.70;94038.00;;;;7398711;19;20129;-75
2023/05/20 07:51:19;;;;;;;6.97;6.28;;;15.00;99.90;16.50;94040.00;;;;7398108;19;20121;-74
2023/05/20 07:53:46;;;;;;;7.57;6.00;;;15.10;71.40;17.90;94031.00;;;;7395808;19;20157;-74
2023/05/20 07:56:20;;;;;;;6.85;6.03;;;15.70;16.00;17.40;94031.00;;;;7403473;19;20139;-75
2023/05/20 07:58:59;;;;;;;6.22;5.65;;;16.00;1.00;16.60;94039.00;;;;7405661;19;20154;-75
2023/05/20 08:01:33;;;;;;;6.20;5.60;;;15.80;1.00;16.30;94049.00;;;;7401652;19;20169;-75
2023/05/20 08:04:00;;;;;;;8.15;6.43;;;15.70;1.00;16.70;94044.00;;;;7403428;19;20193;-76
2023/05/20 08:06:40;;;;;;;10.23;6.15;;;15.70;38.10;16.90;94021.00;;;;7400500;19;20175;-74
2023/05/20 08:09:09;;;;;;;6.28;5.68;;;15.80;1.00;16.60;94054.00;;;;7403609;19;20137;-75
2023/05/20 08:11:45;;;;;;;9.60;6.40;;;15.80;1.00;16.60;94036.00;;;;7403660;19;20148;-73
2023/05/20 08:14:13;;;;;;;7.70;6.43;;;15.60;1.00;16.50;94039.00;;;;7402841;19;20477;-74
2023/05/20 08:16:47;;;;;;;6.53;5.85;;;15.50;1.00;16.30;94065.00;;;;7404129;19;20117;-75
2023/05/20 08:19:14;;;;;;;9.35;5.80;;;15.30;1.00;16.00;94046.00;;;;7403297;19;20138;-73
2023/05/20 08:21:48;;;;;;;6.57;5.88;;;15.30;6.40;16.30;94053.00;;;;7404616;19;20165;-74
2023/05/20 08:24:15;;;;;;;6.43;5.82;;;15.20;1.00;16.20;94023.00;;;;7403423;19;20141;-74
2023/05/20 08:26:49;;;;;;;7.15;6.00;;;15.00;14.10;16.00;94048.00;;;;7402673;19;20153;-74
2023/05/20 08:29:16;;;;;;;8.88;6.00;;;14.90;51.90;16.80;94010.00;;;;7402559;19;20615;-73
2023/05/20 08:31:51;;;;;;;9.20;5.68;;;15.20;38.50;17.30;94019.00;;;;7402299;19;20133;-76
2023/05/20 08:34:18;;;;;;;7.03;5.93;;;15.80;1.00;17.30;94049.00;;;;7401708;19;20467;-74
2023/05/20 08:36:52;;;;;;;8.93;5.72;;;15.90;1.00;17.20;94052.00;;;;7400986;19;20133;-74
2023/05/20 08:39:26;;;;;;;7.28;5.85;;;15.90;1.00;17.20;94055.00;;;;7395512;19;20156;-74
2023/05/20 08:41:53;;;;;;;10.60;6.45;;;15.90;1.00;16.80;94063.00;;;;7401356;19;20533;-75
2023/05/20 08:44:28;;;;;;;20.27;7.47;;;15.80;1.00;17.10;94055.00;;;;7400178;19;20603;-75
2023/05/20 08:46:56;;;;;;;9.27;6.30;;;15.80;1.00;17.00;94063.00;;;;7400451;19;20484;-75
2023/05/20 08:49:31;;;;;;;8.20;6.22;;;15.70;1.00;16.90;94051.00;;;;7394928;19;20156;-74
2023/05/20 08:52:10;;;;;;;18.50;6.88;;;15.70;1.00;16.90;94071.00;;;;7396635;19;20156;-74
2023/05/20 08:54:48;;;;;;;8.43;5.85;;;15.80;1.00;16.50;94071.00;;;;7397678;19;20556;-76
2023/05/20 08:57:15;;;;;;;8.88;6.00;;;15.70;1.00;16.80;94057.00;;;;7401037;19;20153;-75
2023/05/20 08:59:49;;;;;;;6.18;5.57;;;15.80;1.00;17.10;94066.00;;;;7400913;19;20600;-73
2023/05/20 09:02:23;;;;;;;6.90;5.60;;;15.80;1.00;16.80;94048.00;;;;7396491;19;20569;-75
2023/05/20 09:04:57;;;;;;;9.05;6.28;;;15.80;1.00;16.60;94065.00;;;;7397326;19;20276;-75
2023/05/20 09:07:38;;;;;;;8.48;6.05;;;15.60;1.00;16.40;94053.00;;;;7399452;19;20121;-78
2023/05/20 09:10:13;;;;;;;10.77;6.00;;;15.40;1.00;16.40;94071.00;;;;7398085;19;20477;-74
2023/05/20 09:12:40;;;;;;;7.75;5.95;;;15.70;1.00;17.10;94072.00;;;;7399403;19;20159;-74
2023/05/20 09:15:14;;;;;;;10.65;6.30;;;15.80;1.00;17.10;94079.00;;;;7395824;19;20145;-74
2023/05/20 09:17:41;;;;;;;7.93;6.53;;;16.10;1.00;17.30;94076.00;;;;7399510;19;20535;-74
2023/05/20 09:20:16;;;;;;;7.82;6.03;;;16.20;1.00;17.50;94061.00;;;;7400421;19;20599;-75
2023/05/20 09:22:58;;;;;;;6.68;5.93;;;16.30;1.00;17.80;94061.00;;;;7400876;19;20580;-74
2023/05/20 09:25:33;;;;;;;7.15;6.20;;;16.40;1.00;17.60;94065.00;;;;7400101;19;20128;-74
2023/05/20 09:28:08;;;;;;;8.00;6.50;;;16.50;1.00;17.40;94048.00;;;;7398581;19;20160;-76
2023/05/20 09:30:41;;;;;;;7.13;6.38;;;16.70;1.00;18.30;94035.00;;;;7399169;19;20494;-73
2023/05/20 09:33:15;;;;;;;10.75;5.88;;;17.10;1.00;18.90;94066.00;;;;7400651;19;20128;-74
2023/05/20 09:35:43;;;;;;;6.95;5.85;;;17.40;1.00;19.00;94031.00;;;;7398489;19;20184;-75
2023/05/20 09:38:17;;;;;;;8.88;6.60;;;17.50;1.00;20.20;93987.00;;;;7400547;19;20133;-75
2023/05/20 09:40:46;;;;;;;12.35;6.40;;;17.90;1.00;19.90;94015.00;;;;7397908;19;20144;-75
2023/05/20 09:43:20;;;;;;;6.32;5.72;;;18.30;1.00;20.70;94036.00;;;;7400868;19;20140;-75
2023/05/20 09:45:48;;;;;;;7.35;5.68;;;18.70;1.00;19.50;94045.00;;;;7396944;19;20185;-77
2023/05/20 09:48:24;;;;;;;5.93;5.30;;;18.70;1.00;19.00;94053.00;;;;7398103;19;20136;-73
2023/05/20 09:50:53;;;;;;;6.53;5.93;;;18.50;1.00;18.90;94051.00;;;;7395110;19;20611;-74
2023/05/20 09:53:27;;;;;;;7.05;5.85;;;18.10;1.00;19.70;94015.00;;;;7396993;19;20184;-74
2023/05/20 09:55:55;;;;;;;7.05;6.03;;;18.20;32.30;20.70;93999.00;;;;7401235;19;20136;-76
2023/05/20 09:58:32;;;;;;;6.25;5.65;;;18.70;16.60;20.90;94033.00;;;;7400237;19;20625;-75
2023/05/20 10:01:06;;;;;;;6.03;5.43;;;19.20;4.60;21.80;94020.00;;;;7397418;19;20232;-74
2023/05/20 10:03:34;;;;;;;5.75;5.25;;;19.60;1.00;22.00;94030.00;;;;7401237;19;20588;-76
2023/05/20 10:06:37;;;;;;;8.02;5.90;;;20.00;1.00;22.10;94028.00;;;;7396388;19;20420;-74
2023/05/20 10:09:55;;;;;;;6.45;5.18;;;20.20;1.00;22.50;94008.00;;;;7396141;19;20145;-74
2023/05/20 10:12:39;;;;;;;6.00;5.40;;;20.60;1.00;21.20;94023.00;;;;7398636;19;20153;-77
2023/05/20 10:15:40;;;;;;;7.38;5.18;;;20.40;1.00;21.10;94018.00;;;;7397453;19;20169;-74
2023/05/20 10:18:54;;;;;;;9.20;5.22;;;20.30;1.00;20.50;94029.00;;;;7398613;19;20212;-76
2023/05/20 10:21:28;;;;;;;7.00;5.47;;;20.00;1.00;20.30;94032.00;;;;7395074;19;20173;-74
2023/05/20 10:24:07;;;;;;;8.07;6.00;;;19.80;1.00;20.50;94034.00;;;;7397259;19;20117;-75
2023/05/20 10:26:40;;;;;;;6.20;5.60;;;19.50;1.00;20.70;94030.00;;;;7395801;19;20143;-74
2023/05/20 10:29:18;;;;;;;6.13;5.53;;;19.50;1.00;20.10;94018.00;;;;7399551;19;20114;-74
2023/05/20 10:31:53;;;;;;;6.47;5.25;;;19.50;1.00;20.50;93999.00;;;;7397342;19;20144;-76
2023/05/20 10:34:26;;;;;;;6.65;5.70;;;19.30;1.00;20.60;94024.00;;;;7398737;19;20603;-75
2023/05/20 10:37:00;;;;;;;8.25;5.60;;;19.50;1.00;21.00;94021.00;;;;7392788;19;20152;-73
2023/05/20 10:39:34;;;;;;;6.22;5.63;;;19.80;1.00;20.70;93994.00;;;;7397921;19;20234;-75
2023/05/20 10:42:10;;;;;;;5.82;5.03;;;19.70;1.00;21.00;93977.00;;;;7398968;19;20125;-76
2023/05/20 10:44:45;;;;;;;6.00;5.40;;;19.50;1.00;21.40;94012.00;;;;7395628;19;20150;-75
2023/05/20 10:47:13;;;;;;;6.38;5.07;;;19.70;1.00;20.50;94023.00;;;;7397995;19;20145;-75
2023/05/20 10:49:52;;;;;;;10.38;5.60;;;19.60;1.00;19.80;93989.00;;;;7399744;19;20125;-74
2023/05/20 10:52:19;;;;;;;5.85;4.95;;;19.30;1.00;20.90;94018.00;;;;7398307;19;20580;-76
2023/05/20 10:54:58;;;;;;;7.57;5.43;;;19.40;1.00;21.10;93993.00;;;;7394243;19;20140;-76
2023/05/20 10:57:28;;;;;;;6.30;5.30;;;19.50;1.00;20.60;94006.00;;;;7394980;19;20164;-72
2023/05/20 11:00:09;;;;;;;6.70;5.28;;;19.50;1.00;19.90;93996.00;;;;7398636;19;20125;-74
2023/05/20 11:02:37;;;;;;;6.13;5.53;;;19.10;1.00;20.70;94008.00;;;;7396326;19;20152;-75
2023/05/20 11:05:19;;;;;;;6.45;4.85;;;19.30;1.00;21.40;93971.00;;;;7395780;19;20227;-74
2023/05/20 11:08:03;;;;;;;9.98;4.93;;;19.60;1.00;21.40;93999.00;;;;7396637;19;20144;-75
2023/05/20 11:10:56;;;;;;;5.72;5.15;;;19.80;1.00;20.30;94019.00;;;;7398902;19;20121;-73
2023/05/20 11:13:24;;;;;;;5.53;5.03;;;19.60;1.00;19.90;94008.00;;;;7396407;19;20129;-74
2023/05/20 11:16:00;;;;;;;6.28;4.82;;;19.30;1.00;19.80;93994.00;;;;7399047;19;20139;-74
2023/05/20 11:18:30;;;;;;;5.90;5.30;;;19.10;1.00;20.90;93968.00;;;;7393056;19;20208;-74
2023/05/20 11:20:59;;;;;;;8.02;5.40;;;19.40;1.00;21.80;94011.00;;;;7390286;19;20156;-74
2023/05/20 11:23:33;;;;;;;5.88;5.38;;;19.90;1.00;21.70;93999.00;;;;7392036;19;20139;-77
2023/05/20 11:26:01;;;;;;;7.65;4.97;;;20.20;1.00;21.20;93999.00;;;;7389574;19;20727;-73
2023/05/20 11:28:35;;;;;;;8.40;4.93;;;20.20;1.00;22.10;93944.00;;;;7393314;19;20137;-75
2023/05/20 11:31:03;;;;;;;5.43;4.90;;;20.30;1.00;22.20;93971.00;;;;7399226;19;20162;-74